Latest Weather Observations for Casterton

IDV60801

Issued at 2:35 pm EDT Saturday 25 October 2014 (issued every 30 minutes, with the page automatically refreshed every 10 minutes)

About weather observations | Map of weather stations | Latest weather observations for VIC | Other Formats
Station Details ID: 090182 Name: CASTERTON Lat: -37.58 Lon: 141.33 Height: 130.6 m
Data from the previous 72 hours. | See also: Recent months at Casterton
Date/Time
EDT
Temp
°C
App
Temp
°C
Dew
Point
Rel
Hum
%
Delta-T
°C
Wind Press
QNH
hPa
Press
MSL
hPa
Rain
since 9 am
mm
Dir
 
Spd
km/h
Gust
km/h
Spd
kts
Gust
kts
25/02:30pm 19.6 17.8 13.3 67 3.6 ESE 15 22 8 12 1015.1 - 0.0
25/02:00pm 20.2 18.8 14.6 70 3.3 SE 15 20 8 11 1015.4 - 0.0
25/01:30pm 19.8 19.5 14.4 71 3.2 SE 9 17 5 9 1015.7 - 0.0
25/01:00pm 18.7 17.5 12.7 68 3.4 ESE 11 19 6 10 1016.1 - 0.0
25/12:30pm 17.4 16.6 11.7 69 3.1 SE 7 15 4 8 1016.6 - 0.0
25/12:00pm 17.4 14.8 13.3 77 2.3 ESE 19 26 10 14 1016.8 1016.8 0.0
25/11:30am 17.1 16.0 14.2 83 1.7 ESE 13 22 7 12 1017.0 - 0.0
25/11:00am 16.0 15.1 13.7 86 1.3 SE 11 17 6 9 1017.2 - 0.0
25/10:30am 14.5 12.5 11.6 83 1.6 SE 13 20 7 11 1017.2 - 0.0
25/10:00am 13.9 11.5 11.4 85 1.3 ESE 15 19 8 10 1016.8 - 0.0
25/09:30am 13.8 10.6 11.1 84 1.4 E 19 24 10 13 1016.9 - 0.0
25/09:00am 13.3 10.5 11.2 87 1.1 SE 17 24 9 13 1017.2 1017.2 0.0
25/08:30am 12.8 10.3 11.2 90 0.8 SE 15 24 8 13 1017.3 - 0.0
25/08:00am 12.6 10.0 10.8 89 0.9 SE 15 24 8 13 1017.3 - 0.0
25/07:30am 12.4 10.2 10.8 90 0.8 ESE 13 19 7 10 1017.1 - 0.0
25/07:00am 12.1 10.3 10.8 92 0.7 SE 11 17 6 9 1016.8 - 0.0
25/06:30am 12.1 9.6 11.2 94 0.5 SE 15 20 8 11 1016.2 - 0.0
25/06:00am 12.1 10.0 11.3 95 0.4 SE 13 22 7 12 1016.0 1016.0 0.0
25/05:30am 12.2 10.5 11.3 94 0.5 SSE 11 19 6 10 1016.0 - 0.0
25/05:00am 12.2 10.9 11.3 94 0.5 SE 9 13 5 7 1016.0 - 0.0
25/04:30am 12.3 10.2 11.2 93 0.6 SE 13 20 7 11 1015.9 - 0.0
25/04:00am 12.3 10.7 11.4 94 0.5 SSE 11 17 6 9 1015.8 - 0.0
25/03:30am 12.4 10.7 11.1 92 0.7 SE 11 17 6 9 1015.9 - 0.0
25/03:00am 12.5 10.0 11.2 92 0.7 SE 15 19 8 10 1015.9 1015.9 0.0
25/02:30am 12.5 10.9 11.6 94 0.5 SE 11 17 6 9 1016.0 - 0.0
25/02:00am 12.6 11.0 11.7 94 0.5 SSE 11 20 6 11 1016.3 - 0.0
25/01:30am 12.6 10.7 11.7 94 0.5 SSE 13 19 7 10 1016.5 - 0.0
25/01:00am 12.6 9.5 11.7 94 0.5 S 19 28 10 15 1016.7 - 0.0
25/12:30am 12.7 10.4 11.8 94 0.5 S 15 20 8 11 1016.7 - 0.0
25/12:00am 12.7 9.5 11.4 92 0.7 S 19 28 10 15 1016.9 1016.9 0.0
 
Date/Time
EDT
Temp
°C
App
Temp
°C
Dew
Point
Rel
Hum
%
Delta-T
°C
Wind Press
QNH
hPa
Press
MSL
hPa
Rain
since 9 am
mm
Dir
 
Spd
km/h
Gust
km/h
Spd
kts
Gust
kts
24/11:30pm 13.3 11.6 12.4 94 0.5 S 13 20 7 11 1016.8 - 0.0
24/11:00pm 13.4 12.0 12.3 93 0.6 SW 11 19 6 10 1016.5 - 0.0
24/10:30pm 13.5 12.1 12.2 92 0.7 SSW 11 17 6 9 1016.5 - 0.0
24/10:00pm 13.7 12.0 12.3 91 0.8 SSW 13 17 7 9 1016.4 - 0.0
24/09:30pm 13.9 12.2 12.6 92 0.7 SSW 13 19 7 10 1016.1 - 0.0
24/09:00pm 13.3 12.1 12.7 96 0.3 WSW 11 13 6 7 1015.8 1015.8 0.0
24/08:30pm 13.9 11.9 12.8 93 0.6 SW 15 20 8 11 1015.3 - 0.0
24/08:00pm 14.8 12.0 12.5 86 1.3 WSW 19 26 10 14 1015.0 - 0.0
24/07:30pm 16.1 13.0 12.1 77 2.2 WSW 20 28 11 15 1014.4 - 0.0
24/07:00pm 17.3 14.3 12.6 74 2.6 WSW 20 26 11 14 1013.9 - 0.0
24/06:30pm 17.8 13.7 12.7 72 2.9 SW 26 35 14 19 1013.5 - 0.0
24/06:00pm 20.3 16.5 13.7 66 3.8 WSW 26 43 14 23 1012.9 1012.9 0.0
24/05:30pm 23.9 20.7 11.2 44 7.2 WNW 19 28 10 15 1012.1 - 0.0
24/05:00pm 24.2 20.3 10.8 43 7.5 W 22 32 12 17 1012.0 - 0.0
24/04:30pm 23.4 19.4 10.5 44 7.2 WNW 22 30 12 16 1012.4 - 0.0
24/04:00pm 23.5 19.7 11.2 46 6.9 W 22 30 12 16 1012.4 - 0.0
24/03:30pm 23.8 19.8 10.5 43 7.4 W 22 33 12 18 1012.4 - 0.0
24/03:00pm 23.9 19.6 12.2 48 6.7 W 26 35 14 19 1012.5 1012.4 0.0
24/02:30pm 23.3 19.9 12.6 51 6.2 W 22 33 12 18 1012.6 - 0.0
24/02:00pm 22.8 20.2 13.8 57 5.3 NW 20 30 11 16 1012.7 - 0.0
24/01:30pm 22.0 20.6 14.6 63 4.4 NW 15 24 8 13 1012.7 - 0.0
24/01:00pm 20.2 18.3 14.1 68 3.5 WNW 17 20 9 11 1012.8 - 0.0
24/12:30pm 19.1 18.2 14.8 76 2.5 NW 13 19 7 10 1013.1 - 0.0
24/12:00pm 17.9 15.5 13.8 77 2.3 WNW 19 26 10 14 1013.3 1013.3 0.0
24/11:30am 18.9 16.7 15.0 78 2.3 W 20 30 11 16 1013.4 - 0.0
24/11:00am 19.4 17.2 14.9 75 2.6 WNW 20 30 11 16 1013.1 - 0.0
24/10:30am 19.4 18.9 17.0 86 1.5 WNW 15 19 8 10 1012.9 - 0.0
24/10:00am 17.5 16.7 17.2 98 0.2 NW 17 24 9 13 1012.7 - 0.0
24/09:30am 15.5 15.1 15.3 99 0.1 N 11 15 6 8 1012.2 - 0.0
24/09:00am 14.1 13.3 14.1 100 0.0 NNW 11 19 6 10 1012.4 1012.3 0.0
24/08:30am 12.9 12.5 12.9 100 0.0 N 7 11 4 6 1012.1 - 0.0
24/08:00am 10.4 10.6 10.4 100 0.0 CALM 0 0 0 0 1012.4 - 0.0
24/07:30am 9.2 9.0 9.2 100 0.0 CALM 0 4 0 2 1012.1 - 0.0
24/07:00am 8.4 6.9 8.4 100 0.0 NE 6 7 3 4 1011.6 - 0.0
24/06:30am 8.3 7.9 8.2 99 0.0 CALM 0 0 0 0 1011.5 - 0.0
24/06:00am 8.1 6.5 8.0 99 0.0 ENE 6 9 3 5 1011.4 1011.4 0.0
24/05:30am 9.5 8.1 9.5 100 0.0 NE 7 9 4 5 1011.3 - 0.0
24/05:00am 9.0 7.4 8.9 99 0.0 NE 7 9 4 5 1011.4 - 0.0
24/04:30am 8.9 7.3 8.8 99 0.0 NE 7 9 4 5 1011.2 - 0.0
24/04:00am 9.8 8.4 9.7 99 0.1 ENE 7 9 4 5 1011.4 - 0.0
24/03:30am 10.3 9.0 10.1 99 0.1 NE 7 9 4 5 1011.6 - 0.0
24/03:00am 9.9 8.6 9.8 99 0.1 ENE 7 9 4 5 1011.8 1011.8 0.0
24/02:30am 10.6 10.8 10.4 99 0.1 CALM 0 2 0 1 1012.4 - 0.0
24/02:00am 11.7 11.8 11.5 99 0.1 ENE 2 6 1 3 1012.8 - 0.0
24/01:30am 12.4 11.8 12.2 99 0.1 E 7 11 4 6 1013.1 - 0.0
24/01:00am 12.7 11.8 12.5 99 0.1 E 9 15 5 8 1013.3 - 0.0
24/12:30am 12.9 11.3 12.7 99 0.1 E 13 17 7 9 1013.2 - 0.0
24/12:00am 12.9 11.6 12.6 98 0.2 E 11 17 6 9 1013.7 1013.7 0.0
 
Date/Time
EDT
Temp
°C
App
Temp
°C
Dew
Point
Rel
Hum
%
Delta-T
°C
Wind Press
QNH
hPa
Press
MSL
hPa
Rain
since 9 am
mm
Dir
 
Spd
km/h
Gust
km/h
Spd
kts
Gust
kts
23/11:30pm 13.1 11.1 12.8 98 0.2 E 15 22 8 12 1014.0 - 0.0
23/11:00pm 13.4 11.9 13.1 98 0.2 E 13 20 7 11 1014.3 - 0.0
23/10:30pm 13.7 12.3 13.4 98 0.2 ESE 13 20 7 11 1014.5 - 0.0
23/10:00pm 14.0 13.1 13.7 98 0.2 ESE 11 20 6 11 1014.4 - 0.0
23/09:30pm 14.5 13.4 14.2 98 0.2 SE 13 19 7 10 1014.5 - 0.0
23/09:00pm 15.1 14.6 14.8 98 0.2 SE 11 17 6 9 1014.4 1014.4 0.0
23/08:30pm 15.8 15.4 15.3 97 0.3 SSE 11 15 6 8 1014.3 - 0.0
23/08:00pm 16.4 16.0 14.2 87 1.3 SE 9 11 5 6 1014.2 - 0.0
23/07:30pm 18.1 17.8 14.4 79 2.1 SSE 9 11 5 6 1014.0 - 0.0
23/07:00pm 19.4 18.3 14.4 73 2.9 SE 13 20 7 11 1014.2 - 0.0
23/06:30pm 19.8 18.4 14.6 72 3.0 SE 15 19 8 10 1014.3 - 0.0
23/06:00pm 19.9 17.7 14.5 71 3.2 SE 19 26 10 14 1014.5 1014.5 0.0
23/05:30pm 20.4 18.4 15.0 71 3.2 SSE 19 26 10 14 1014.5 - 0.0
23/05:00pm 20.2 17.7 13.6 66 3.8 SE 19 30 10 16 1014.5 - 0.0
23/04:30pm 19.9 17.4 14.0 69 3.4 ESE 20 30 11 16 1014.6 - 0.0
23/04:00pm 19.6 16.8 14.4 72 3.0 SE 22 30 12 16 1015.0 - 0.0
23/03:30pm 19.3 16.7 13.7 70 3.2 ESE 20 32 11 17 1015.4 - 0.0
23/03:00pm 19.0 16.5 15.1 78 2.3 SE 22 32 12 17 1015.6 1015.6 0.0
23/02:30pm 18.5 15.7 14.2 76 2.5 SE 22 33 12 18 1016.0 - 0.0
23/02:00pm 17.5 13.6 13.2 76 2.4 SE 26 35 14 19 1016.6 - 0.0
23/01:30pm 17.4 14.1 13.9 80 2.0 SE 24 37 13 20 1016.9 - 0.0
23/01:00pm 17.3 14.5 14.2 82 1.8 SE 22 33 12 18 1017.3 - 0.0
23/12:30pm 16.2 12.5 12.6 79 2.0 SE 24 33 13 18 1017.8 - 0.0
23/12:00pm 17.0 13.8 14.3 84 1.6 SE 24 33 13 18 1018.0 1018.0 0.0
23/11:30am 14.8 10.8 13.0 89 1.0 SE 26 35 14 19 1018.4 - 0.0
23/11:00am 13.9 10.2 12.6 92 0.7 ESE 24 39 13 21 1018.8 - 0.0
23/10:30am 13.7 9.6 12.8 94 0.5 SE 26 37 14 20 1019.1 - 0.0
23/10:00am 13.3 9.6 12.7 96 0.3 SE 24 35 13 19 1019.3 - 0.0
23/09:30am 12.9 9.2 12.6 98 0.2 SE 24 33 13 18 1019.2 - 0.0
23/09:00am 12.9 9.5 12.6 98 0.2 SE 22 37 12 20 1019.2 1019.3 0.0
23/08:30am 12.5 8.6 12.2 98 0.2 SE 24 37 13 20 1019.2 - 0.0
23/08:00am 12.4 8.5 12.1 98 0.2 SE 24 33 13 18 1019.4 - 0.0
23/07:30am 12.3 8.0 12.0 98 0.2 SE 26 43 14 23 1019.3 - 0.0
23/07:00am 12.3 9.1 12.0 98 0.2 SE 20 33 11 18 1019.2 - 0.0
23/06:30am 12.3 9.1 12.0 98 0.2 SE 20 32 11 17 1019.1 - 0.0
23/06:00am 12.4 9.3 12.1 98 0.2 SE 20 30 11 16 1019.0 1019.1 0.0
23/05:30am 12.5 9.0 12.2 98 0.2 SE 22 35 12 19 1018.9 - 0.0
23/05:00am 12.4 8.5 12.1 98 0.2 SE 24 37 13 20 1019.0 - 0.0
23/04:30am 12.4 9.3 12.1 98 0.2 SE 20 33 11 18 1018.9 - 0.0
23/04:00am 12.4 8.1 12.1 98 0.2 SE 26 35 14 19 1019.0 - 0.0
23/03:30am 12.4 8.9 12.1 98 0.2 SSE 22 35 12 19 1019.1 - 0.0
23/03:00am 12.4 9.3 12.1 98 0.2 SSE 20 35 11 19 1019.4 1019.5 0.0
23/02:30am 12.5 9.4 12.2 98 0.2 SSE 20 30 11 16 1019.4 - 0.0
23/02:00am 12.5 9.4 12.2 98 0.2 SE 20 30 11 16 1019.5 - 0.0
23/01:30am 12.5 10.0 12.2 98 0.2 SSE 17 26 9 14 1019.5 - 0.0
23/01:00am 12.6 9.5 12.3 98 0.2 SE 20 26 11 14 1019.8 - 0.0
23/12:30am 12.8 10.7 12.5 98 0.2 SSE 15 22 8 12 1019.9 - 0.0
23/12:00am 12.8 9.8 12.5 98 0.2 SSE 20 28 11 15 1019.9 1020.0 0.0
 
Date/Time
EDT
Temp
°C
App
Temp
°C
Dew
Point
Rel
Hum
%
Delta-T
°C
Wind Press
QNH
hPa
Press
MSL
hPa
Rain
since 9 am
mm
Dir
 
Spd
km/h
Gust
km/h
Spd
kts
Gust
kts
22/11:30pm 12.9 10.1 12.6 98 0.2 SSE 19 26 10 14 1020.0 - 0.0
22/11:00pm 13.1 11.1 12.8 98 0.2 SE 15 20 8 11 1020.1 - 0.0
22/10:30pm 13.2 10.3 12.9 98 0.2 SSE 20 28 11 15 1020.3 - 0.0
22/10:00pm 13.3 10.6 13.0 98 0.2 SSE 19 30 10 16 1020.3 - 0.0
22/09:30pm 13.5 10.7 13.2 98 0.2 SSE 20 30 11 16 1020.0 - 0.0
22/09:00pm 13.9 11.8 13.6 98 0.2 SSE 17 28 9 15 1019.5 1019.6 0.0
22/08:30pm 13.3 10.4 13.0 98 0.2 S 20 30 11 16 1019.1 - 0.0
22/08:00pm 13.8 10.3 13.5 98 0.2 S 24 33 13 18 1018.7 - 0.0
22/07:30pm 16.0 13.3 12.9 82 1.7 S 19 26 10 14 1018.1 - 0.0
22/07:00pm 17.2 14.4 12.5 74 2.6 S 19 26 10 14 1017.9 - 0.0
22/06:30pm 18.2 15.6 13.1 72 2.9 SSW 19 26 10 14 1017.4 - 0.0
22/06:00pm 19.7 17.8 14.1 70 3.2 SSW 17 24 9 13 1016.8 1016.8 0.0
22/05:30pm 20.0 16.4 13.0 64 4.0 SSW 24 35 13 19 1016.4 - 0.0
22/05:00pm 21.6 18.6 13.8 61 4.5 SSW 22 30 12 16 1016.0 - 0.0
22/04:30pm 22.6 18.8 13.7 57 5.2 SW 26 37 14 20 1015.9 - 0.0
22/04:00pm 24.3 21.4 15.0 56 5.6 SSW 24 39 13 21 1015.6 - 0.0
22/03:30pm 24.8 21.2 14.3 52 6.3 SSW 26 39 14 21 1015.8 - 0.0
22/03:00pm 26.3 21.8 13.8 46 7.4 SSW 30 46 16 25 1015.6 1015.6 0.0

Other Formats:

Comma delimited format used in spreadsheet applications
http://www.bom.gov.au/fwo/IDV60801/IDV60801.95825.axf

JavaScript Object Notation format (JSON) in row-major order
http://www.bom.gov.au/fwo/IDV60801/IDV60801.95825.json